Weather at Rakkestad Astorp Airport

Public forecast

Using degrees Celsius for public forecast. Weather courtesy of forecast.io.

Closest aviation weather report (METAR) to Rakkestad Astorp Airport

Closest report is Moss Airport, Rygge, 17.2 nm (31.9 km) W. Retrieved 2022/06/28 12:20 UTC (33 minutes ago):

ENRY 281220Z 19012KT 9999 FEW015 21/13 Q1016 NOSIG

Closest aviation forecast (TAF) to Rakkestad Astorp Airport

Closest forecast is Moss Airport, Rygge, 17.2 nm (31.9 km) W. Retrieved 2022/06/28 12:03 UTC (50 minutes ago):

TAF TAF ENRY 281100Z 2812/2912 19010KT 9999 FEW015